sensor_id;sensor_type;location;lat;lon;timestamp;P1;durP1;ratioP1;P2;durP2;ratioP2
10005;SDS011;5042;42.626;23.382;2023-07-31T00:02:17;3.15;;;2.85;;
10005;SDS011;5042;42.626;23.382;2023-07-31T00:04:43;3.70;;;3.28;;
10005;SDS011;5042;42.626;23.382;2023-07-31T00:07:10;3.45;;;3.17;;
10005;SDS011;5042;42.626;23.382;2023-07-31T00:09:38;3.42;;;3.13;;
10005;SDS011;5042;42.626;23.382;2023-07-31T00:12:05;4.00;;;3.60;;
10005;SDS011;5042;42.626;23.382;2023-07-31T00:14:33;3.55;;;3.25;;
10005;SDS011;5042;42.626;23.382;2023-07-31T00:16:59;3.42;;;3.13;;
10005;SDS011;5042;42.626;23.382;2023-07-31T00:19:26;3.15;;;2.95;;
10005;SDS011;5042;42.626;23.382;2023-07-31T00:21:53;3.50;;;3.20;;
10005;SDS011;5042;42.626;23.382;2023-07-31T00:24:19;3.58;;;3.28;;
10005;SDS011;5042;42.626;23.382;2023-07-31T00:26:47;4.45;;;3.45;;
10005;SDS011;5042;42.626;23.382;2023-07-31T00:29:14;3.80;;;3.50;;
10005;SDS011;5042;42.626;23.382;2023-07-31T00:31:41;4.10;;;3.80;;
10005;SDS011;5042;42.626;23.382;2023-07-31T00:34:08;3.78;;;3.47;;
10005;SDS011;5042;42.626;23.382;2023-07-31T00:36:35;3.85;;;3.55;;
10005;SDS011;5042;42.626;23.382;2023-07-31T00:39:01;3.83;;;3.53;;
10005;SDS011;5042;42.626;23.382;2023-07-31T00:41:29;4.43;;;4.00;;
10005;SDS011;5042;42.626;23.382;2023-07-31T00:43:59;3.90;;;3.60;;
10005;SDS011;5042;42.626;23.382;2023-07-31T00:46:25;4.00;;;3.70;;
10005;SDS011;5042;42.626;23.382;2023-07-31T00:48:52;4.80;;;4.22;;
10005;SDS011;5042;42.626;23.382;2023-07-31T00:51:19;4.18;;;3.85;;
10005;SDS011;5042;42.626;23.382;2023-07-31T00:53:46;4.70;;;4.30;;
10005;SDS011;5042;42.626;23.382;2023-07-31T00:56:13;5.82;;;4.20;;
10005;SDS011;5042;42.626;23.382;2023-07-31T00:58:40;4.40;;;4.07;;
10005;SDS011;5042;42.626;23.382;2023-07-31T01:01:08;4.43;;;4.03;;
10005;SDS011;5042;42.626;23.382;2023-07-31T01:03:35;4.80;;;4.40;;
10005;SDS011;5042;42.626;23.382;2023-07-31T01:06:04;4.70;;;4.30;;
10005;SDS011;5042;42.626;23.382;2023-07-31T01:08:41;5.45;;;4.97;;
10005;SDS011;5042;42.626;23.382;2023-07-31T01:11:14;5.45;;;4.97;;
10005;SDS011;5042;42.626;23.382;2023-07-31T01:13:43;5.65;;;5.15;;
10005;SDS011;5042;42.626;23.382;2023-07-31T01:16:12;5.43;;;4.93;;
10005;SDS011;5042;42.626;23.382;2023-07-31T01:18:38;5.03;;;4.63;;
10005;SDS011;5042;42.626;23.382;2023-07-31T01:21:09;6.07;;;5.47;;
10005;SDS011;5042;42.626;23.382;2023-07-31T01:26:53;7.40;;;6.30;;
10005;SDS011;5042;42.626;23.382;2023-07-31T01:29:25;6.45;;;5.78;;
10005;SDS011;5042;42.626;23.382;2023-07-31T01:31:59;6.70;;;5.85;;
10005;SDS011;5042;42.626;23.382;2023-07-31T01:34:28;7.35;;;6.60;;
10005;SDS011;5042;42.626;23.382;2023-07-31T01:36:56;7.93;;;7.22;;
10005;SDS011;5042;42.626;23.382;2023-07-31T01:39:23;8.90;;;8.10;;
10005;SDS011;5042;42.626;23.382;2023-07-31T01:41:50;10.88;;;9.77;;
10005;SDS011;5042;42.626;23.382;2023-07-31T01:44:18;12.13;;;10.93;;
10005;SDS011;5042;42.626;23.382;2023-07-31T01:46:45;14.80;;;12.05;;
10005;SDS011;5042;42.626;23.382;2023-07-31T01:49:11;14.45;;;12.95;;
10005;SDS011;5042;42.626;23.382;2023-07-31T01:51:38;16.15;;;13.52;;
10005;SDS011;5042;42.626;23.382;2023-07-31T01:54:05;15.02;;;13.10;;
10005;SDS011;5042;42.626;23.382;2023-07-31T01:56:31;16.45;;;14.60;;
10005;SDS011;5042;42.626;23.382;2023-07-31T01:59:15;19.60;;;15.10;;
10005;SDS011;5042;42.626;23.382;2023-07-31T02:01:43;19.20;;;15.85;;
10005;SDS011;5042;42.626;23.382;2023-07-31T02:04:10;17.48;;;15.52;;
10005;SDS011;5042;42.626;23.382;2023-07-31T02:06:37;18.38;;;16.38;;
10005;SDS011;5042;42.626;23.382;2023-07-31T02:09:04;18.15;;;16.15;;
10005;SDS011;5042;42.626;23.382;2023-07-31T02:11:31;18.25;;;16.30;;
10005;SDS011;5042;42.626;23.382;2023-07-31T02:13:58;19.80;;;16.45;;
10005;SDS011;5042;42.626;23.382;2023-07-31T02:16:24;18.88;;;16.38;;
10005;SDS011;5042;42.626;23.382;2023-07-31T02:18:52;19.77;;;16.13;;
10005;SDS011;5042;42.626;23.382;2023-07-31T02:21:19;19.75;;;16.40;;
10005;SDS011;5042;42.626;23.382;2023-07-31T02:23:46;19.65;;;16.20;;
10005;SDS011;5042;42.626;23.382;2023-07-31T02:26:12;19.25;;;15.77;;
10005;SDS011;5042;42.626;23.382;2023-07-31T02:28:39;18.13;;;16.13;;
10005;SDS011;5042;42.626;23.382;2023-07-31T02:31:08;18.70;;;16.13;;
10005;SDS011;5042;42.626;23.382;2023-07-31T02:33:35;18.98;;;15.73;;
10005;SDS011;5042;42.626;23.382;2023-07-31T02:36:03;17.67;;;15.65;;
10005;SDS011;5042;42.626;23.382;2023-07-31T02:38:30;20.42;;;16.63;;
10005;SDS011;5042;42.626;23.382;2023-07-31T02:40:56;19.02;;;16.05;;
10005;SDS011;5042;42.626;23.382;2023-07-31T02:43:23;18.30;;;16.00;;
10005;SDS011;5042;42.626;23.382;2023-07-31T02:45:51;19.25;;;15.60;;
10005;SDS011;5042;42.626;23.382;2023-07-31T02:48:17;18.83;;;16.08;;
10005;SDS011;5042;42.626;23.382;2023-07-31T02:50:44;18.63;;;15.55;;
10005;SDS011;5042;42.626;23.382;2023-07-31T02:53:12;18.50;;;16.00;;
10005;SDS011;5042;42.626;23.382;2023-07-31T02:55:39;19.88;;;16.65;;
10005;SDS011;5042;42.626;23.382;2023-07-31T02:58:07;19.02;;;15.55;;
10005;SDS011;5042;42.626;23.382;2023-07-31T03:00:33;18.10;;;15.80;;
10005;SDS011;5042;42.626;23.382;2023-07-31T03:03:00;19.63;;;15.88;;
10005;SDS011;5042;42.626;23.382;2023-07-31T03:05:27;18.42;;;16.42;;
10005;SDS011;5042;42.626;23.382;2023-07-31T03:07:53;20.77;;;16.08;;
10005;SDS011;5042;42.626;23.382;2023-07-31T03:10:21;18.45;;;15.68;;
10005;SDS011;5042;42.626;23.382;2023-07-31T03:12:48;19.35;;;16.10;;
10005;SDS011;5042;42.626;23.382;2023-07-31T03:15:15;18.42;;;15.85;;
10005;SDS011;5042;42.626;23.382;2023-07-31T03:17:42;19.27;;;15.73;;
10005;SDS011;5042;42.626;23.382;2023-07-31T03:20:09;17.38;;;15.40;;
10005;SDS011;5042;42.626;23.382;2023-07-31T03:22:36;19.65;;;15.55;;
10005;SDS011;5042;42.626;23.382;2023-07-31T03:25:03;18.40;;;15.13;;
10005;SDS011;5042;42.626;23.382;2023-07-31T03:27:32;19.17;;;15.90;;
10005;SDS011;5042;42.626;23.382;2023-07-31T03:29:59;19.10;;;15.45;;
10005;SDS011;5042;42.626;23.382;2023-07-31T03:32:26;18.60;;;15.40;;
10005;SDS011;5042;42.626;23.382;2023-07-31T03:34:52;20.17;;;16.33;;
10005;SDS011;5042;42.626;23.382;2023-07-31T03:37:19;18.33;;;15.32;;
10005;SDS011;5042;42.626;23.382;2023-07-31T03:39:46;18.90;;;15.63;;
10005;SDS011;5042;42.626;23.382;2023-07-31T03:42:12;19.95;;;15.10;;
10005;SDS011;5042;42.626;23.382;2023-07-31T03:44:41;19.25;;;15.73;;
10005;SDS011;5042;42.626;23.382;2023-07-31T03:47:07;19.15;;;15.50;;
10005;SDS011;5042;42.626;23.382;2023-07-31T03:49:34;20.08;;;15.52;;
10005;SDS011;5042;42.626;23.382;2023-07-31T03:52:01;19.25;;;15.88;;
10005;SDS011;5042;42.626;23.382;2023-07-31T03:54:27;19.83;;;15.55;;
10005;SDS011;5042;42.626;23.382;2023-07-31T03:56:54;17.73;;;15.18;;
10005;SDS011;5042;42.626;23.382;2023-07-31T03:59:21;19.95;;;15.45;;
10005;SDS011;5042;42.626;23.382;2023-07-31T04:01:49;19.70;;;14.93;;
10005;SDS011;5042;42.626;23.382;2023-07-31T04:04:16;18.77;;;15.30;;
10005;SDS011;5042;42.626;23.382;2023-07-31T04:06:43;18.67;;;15.50;;
10005;SDS011;5042;42.626;23.382;2023-07-31T04:09:09;20.17;;;15.25;;
10005;SDS011;5042;42.626;23.382;2023-07-31T04:11:36;18.58;;;15.20;;
10005;SDS011;5042;42.626;23.382;2023-07-31T04:14:04;20.85;;;15.93;;
10005;SDS011;5042;42.626;23.382;2023-07-31T04:16:30;20.75;;;15.90;;
10005;SDS011;5042;42.626;23.382;2023-07-31T04:18:58;20.00;;;15.10;;
10005;SDS011;5042;42.626;23.382;2023-07-31T04:21:25;21.58;;;16.10;;
10005;SDS011;5042;42.626;23.382;2023-07-31T04:23:52;20.00;;;15.73;;
10005;SDS011;5042;42.626;23.382;2023-07-31T04:26:20;21.10;;;16.02;;
10005;SDS011;5042;42.626;23.382;2023-07-31T04:28:47;18.98;;;14.30;;
10005;SDS011;5042;42.626;23.382;2023-07-31T04:31:14;20.17;;;14.75;;
10005;SDS011;5042;42.626;23.382;2023-07-31T04:33:40;19.70;;;14.93;;
10005;SDS011;5042;42.626;23.382;2023-07-31T04:36:08;19.05;;;15.05;;
10005;SDS011;5042;42.626;23.382;2023-07-31T04:38:35;20.90;;;15.63;;
10005;SDS011;5042;42.626;23.382;2023-07-31T04:41:02;20.55;;;15.07;;
10005;SDS011;5042;42.626;23.382;2023-07-31T04:43:30;16.98;;;13.48;;
10005;SDS011;5042;42.626;23.382;2023-07-31T04:45:57;17.08;;;13.95;;
10005;SDS011;5042;42.626;23.382;2023-07-31T04:48:24;19.95;;;14.48;;
10005;SDS011;5042;42.626;23.382;2023-07-31T04:50:50;17.50;;;13.63;;
10005;SDS011;5042;42.626;23.382;2023-07-31T04:53:18;19.92;;;14.00;;
10005;SDS011;5042;42.626;23.382;2023-07-31T04:55:45;17.90;;;13.32;;
10005;SDS011;5042;42.626;23.382;2023-07-31T04:58:12;15.43;;;12.70;;
10005;SDS011;5042;42.626;23.382;2023-07-31T05:00:38;16.33;;;12.80;;
10005;SDS011;5042;42.626;23.382;2023-07-31T05:03:05;15.02;;;12.77;;
10005;SDS011;5042;42.626;23.382;2023-07-31T05:05:32;15.13;;;12.02;;
10005;SDS011;5042;42.626;23.382;2023-07-31T05:07:58;15.70;;;12.50;;
10005;SDS011;5042;42.626;23.382;2023-07-31T05:10:27;14.50;;;11.48;;
10005;SDS011;5042;42.626;23.382;2023-07-31T05:12:53;14.85;;;12.30;;
10005;SDS011;5042;42.626;23.382;2023-07-31T05:15:20;14.50;;;11.57;;
10005;SDS011;5042;42.626;23.382;2023-07-31T05:17:46;14.52;;;11.75;;
10005;SDS011;5042;42.626;23.382;2023-07-31T05:20:13;13.77;;;10.40;;
10005;SDS011;5042;42.626;23.382;2023-07-31T05:22:41;13.63;;;10.65;;
10005;SDS011;5042;42.626;23.382;2023-07-31T05:25:07;12.98;;;10.35;;
10005;SDS011;5042;42.626;23.382;2023-07-31T05:27:36;13.68;;;10.98;;
10005;SDS011;5042;42.626;23.382;2023-07-31T05:30:03;11.68;;;9.88;;
10005;SDS011;5042;42.626;23.382;2023-07-31T05:32:30;11.40;;;9.60;;
10005;SDS011;5042;42.626;23.382;2023-07-31T05:34:57;10.13;;;8.57;;
10005;SDS011;5042;42.626;23.382;2023-07-31T05:37:24;10.57;;;8.63;;
10005;SDS011;5042;42.626;23.382;2023-07-31T05:39:50;10.50;;;9.00;;
10005;SDS011;5042;42.626;23.382;2023-07-31T05:42:17;9.52;;;8.52;;
10005;SDS011;5042;42.626;23.382;2023-07-31T05:44:45;9.75;;;7.88;;
10005;SDS011;5042;42.626;23.382;2023-07-31T05:47:12;9.10;;;8.20;;
10005;SDS011;5042;42.626;23.382;2023-07-31T05:49:38;9.02;;;8.13;;
10005;SDS011;5042;42.626;23.382;2023-07-31T05:52:06;8.18;;;7.30;;
10005;SDS011;5042;42.626;23.382;2023-07-31T05:54:33;8.23;;;7.43;;
10005;SDS011;5042;42.626;23.382;2023-07-31T05:56:59;8.80;;;7.22;;
10005;SDS011;5042;42.626;23.382;2023-07-31T05:59:26;6.47;;;5.70;;
10005;SDS011;5042;42.626;23.382;2023-07-31T06:01:54;5.95;;;5.40;;
10005;SDS011;5042;42.626;23.382;2023-07-31T06:04:21;5.72;;;4.80;;
10005;SDS011;5042;42.626;23.382;2023-07-31T06:06:50;5.18;;;4.68;;
10005;SDS011;5042;42.626;23.382;2023-07-31T06:09:17;6.25;;;5.15;;
10005;SDS011;5042;42.626;23.382;2023-07-31T06:11:44;5.30;;;4.80;;
10005;SDS011;5042;42.626;23.382;2023-07-31T06:14:11;5.40;;;4.90;;
10005;SDS011;5042;42.626;23.382;2023-07-31T06:16:38;4.80;;;4.40;;
10005;SDS011;5042;42.626;23.382;2023-07-31T06:19:06;5.40;;;4.90;;
10005;SDS011;5042;42.626;23.382;2023-07-31T06:21:33;5.30;;;4.80;;
10005;SDS011;5042;42.626;23.382;2023-07-31T06:24:02;5.18;;;4.68;;
10005;SDS011;5042;42.626;23.382;2023-07-31T06:26:29;4.45;;;4.05;;
10005;SDS011;5042;42.626;23.382;2023-07-31T06:28:55;4.40;;;4.00;;
10005;SDS011;5042;42.626;23.382;2023-07-31T06:31:22;4.35;;;3.92;;
10005;SDS011;5042;42.626;23.382;2023-07-31T06:33:49;3.83;;;3.53;;
10005;SDS011;5042;42.626;23.382;2023-07-31T06:36:17;3.65;;;3.35;;
10005;SDS011;5042;42.626;23.382;2023-07-31T06:38:44;3.03;;;2.58;;
10005;SDS011;5042;42.626;23.382;2023-07-31T06:41:10;3.17;;;2.88;;
10005;SDS011;5042;42.626;23.382;2023-07-31T06:43:37;2.90;;;2.70;;
10005;SDS011;5042;42.626;23.382;2023-07-31T06:46:04;3.30;;;3.00;;
10005;SDS011;5042;42.626;23.382;2023-07-31T06:48:32;3.58;;;2.40;;
10005;SDS011;5042;42.626;23.382;2023-07-31T06:50:58;2.58;;;2.38;;
10005;SDS011;5042;42.626;23.382;2023-07-31T06:53:26;3.00;;;2.78;;
10005;SDS011;5042;42.626;23.382;2023-07-31T06:55:54;2.75;;;2.47;;
10005;SDS011;5042;42.626;23.382;2023-07-31T06:58:21;2.80;;;2.60;;
10005;SDS011;5042;42.626;23.382;2023-07-31T07:00:48;3.10;;;2.78;;
10005;SDS011;5042;42.626;23.382;2023-07-31T07:03:16;2.60;;;2.40;;
10005;SDS011;5042;42.626;23.382;2023-07-31T07:05:44;2.72;;;2.53;;
10005;SDS011;5042;42.626;23.382;2023-07-31T07:08:10;2.70;;;2.50;;
10005;SDS011;5042;42.626;23.382;2023-07-31T07:10:38;2.60;;;2.40;;
10005;SDS011;5042;42.626;23.382;2023-07-31T07:13:05;4.15;;;2.42;;
10005;SDS011;5042;42.626;23.382;2023-07-31T07:15:32;2.90;;;2.70;;
10005;SDS011;5042;42.626;23.382;2023-07-31T07:17:58;2.30;;;2.10;;
10005;SDS011;5042;42.626;23.382;2023-07-31T07:20:25;2.67;;;2.35;;
10005;SDS011;5042;42.626;23.382;2023-07-31T07:22:52;2.50;;;2.30;;
10005;SDS011;5042;42.626;23.382;2023-07-31T07:25:19;2.33;;;2.13;;
10005;SDS011;5042;42.626;23.382;2023-07-31T07:27:47;2.65;;;2.45;;
10005;SDS011;5042;42.626;23.382;2023-07-31T07:30:13;2.28;;;2.08;;
10005;SDS011;5042;42.626;23.382;2023-07-31T07:32:40;2.42;;;2.20;;
10005;SDS011;5042;42.626;23.382;2023-07-31T07:35:07;2.92;;;2.35;;
10005;SDS011;5042;42.626;23.382;2023-07-31T07:37:34;2.03;;;1.85;;
10005;SDS011;5042;42.626;23.382;2023-07-31T07:40:00;2.30;;;2.10;;
10005;SDS011;5042;42.626;23.382;2023-07-31T07:42:27;2.00;;;1.90;;
10005;SDS011;5042;42.626;23.382;2023-07-31T07:44:55;2.03;;;1.90;;
10005;SDS011;5042;42.626;23.382;2023-07-31T07:47:22;2.03;;;1.92;;
10005;SDS011;5042;42.626;23.382;2023-07-31T07:49:48;2.20;;;2.00;;
10005;SDS011;5042;42.626;23.382;2023-07-31T07:52:16;2.10;;;2.00;;
10005;SDS011;5042;42.626;23.382;2023-07-31T07:54:43;2.10;;;2.00;;
10005;SDS011;5042;42.626;23.382;2023-07-31T07:57:10;2.95;;;2.38;;
10005;SDS011;5042;42.626;23.382;2023-07-31T07:59:36;2.17;;;2.08;;
10005;SDS011;5042;42.626;23.382;2023-07-31T08:02:05;2.88;;;1.85;;
10005;SDS011;5042;42.626;23.382;2023-07-31T08:04:31;2.00;;;1.90;;
10005;SDS011;5042;42.626;23.382;2023-07-31T08:06:58;2.13;;;1.98;;
10005;SDS011;5042;42.626;23.382;2023-07-31T08:09:25;3.92;;;2.00;;
10005;SDS011;5042;42.626;23.382;2023-07-31T08:11:52;1.65;;;1.55;;
10005;SDS011;5042;42.626;23.382;2023-07-31T08:14:19;1.83;;;1.73;;
10005;SDS011;5042;42.626;23.382;2023-07-31T08:16:46;2.20;;;2.00;;
10005;SDS011;5042;42.626;23.382;2023-07-31T08:19:14;1.90;;;1.80;;
10005;SDS011;5042;42.626;23.382;2023-07-31T08:21:41;1.85;;;1.70;;
10005;SDS011;5042;42.626;23.382;2023-07-31T08:24:07;2.67;;;2.40;;
10005;SDS011;5042;42.626;23.382;2023-07-31T08:26:34;2.45;;;2.22;;
10005;SDS011;5042;42.626;23.382;2023-07-31T08:29:00;1.80;;;1.70;;
10005;SDS011;5042;42.626;23.382;2023-07-31T08:31:27;1.95;;;1.85;;
10005;SDS011;5042;42.626;23.382;2023-07-31T08:33:55;1.88;;;1.77;;
10005;SDS011;5042;42.626;23.382;2023-07-31T08:36:23;1.77;;;1.67;;
10005;SDS011;5042;42.626;23.382;2023-07-31T08:38:50;1.67;;;1.58;;
10005;SDS011;5042;42.626;23.382;2023-07-31T08:41:16;2.60;;;1.60;;
10005;SDS011;5042;42.626;23.382;2023-07-31T08:43:43;1.95;;;1.85;;
10005;SDS011;5042;42.626;23.382;2023-07-31T08:46:11;1.75;;;1.65;;
10005;SDS011;5042;42.626;23.382;2023-07-31T08:48:39;1.80;;;1.70;;
10005;SDS011;5042;42.626;23.382;2023-07-31T08:51:08;1.90;;;1.80;;
10005;SDS011;5042;42.626;23.382;2023-07-31T08:53:36;1.67;;;1.58;;
10005;SDS011;5042;42.626;23.382;2023-07-31T08:56:03;2.10;;;1.90;;
10005;SDS011;5042;42.626;23.382;2023-07-31T08:58:31;2.08;;;1.98;;
10005;SDS011;5042;42.626;23.382;2023-07-31T09:00:58;1.70;;;1.60;;
10005;SDS011;5042;42.626;23.382;2023-07-31T09:03:27;1.85;;;1.75;;
10005;SDS011;5042;42.626;23.382;2023-07-31T09:05:55;1.60;;;1.50;;
10005;SDS011;5042;42.626;23.382;2023-07-31T09:08:24;3.88;;;2.00;;
10005;SDS011;5042;42.626;23.382;2023-07-31T09:10:58;3.40;;;1.90;;
10005;SDS011;5042;42.626;23.382;2023-07-31T09:13:26;1.88;;;1.77;;
10005;SDS011;5042;42.626;23.382;2023-07-31T09:15:54;2.30;;;1.85;;
10005;SDS011;5042;42.626;23.382;2023-07-31T09:18:20;2.55;;;2.35;;
10005;SDS011;5042;42.626;23.382;2023-07-31T09:20:59;2.10;;;1.50;;
10005;SDS011;5042;42.626;23.382;2023-07-31T09:23:27;1.67;;;1.58;;
10005;SDS011;5042;42.626;23.382;2023-07-31T09:26:08;2.08;;;1.95;;
10005;SDS011;5042;42.626;23.382;2023-07-31T09:28:35;1.60;;;1.50;;
10005;SDS011;5042;42.626;23.382;2023-07-31T09:31:02;1.52;;;1.42;;
10005;SDS011;5042;42.626;23.382;2023-07-31T09:33:29;2.08;;;1.65;;
10005;SDS011;5042;42.626;23.382;2023-07-31T09:35:58;1.67;;;1.58;;
10005;SDS011;5042;42.626;23.382;2023-07-31T09:38:25;1.65;;;1.55;;
10005;SDS011;5042;42.626;23.382;2023-07-31T09:40:52;1.83;;;1.73;;
10005;SDS011;5042;42.626;23.382;2023-07-31T09:43:20;2.00;;;1.90;;
10005;SDS011;5042;42.626;23.382;2023-07-31T09:45:52;2.83;;;2.63;;
10005;SDS011;5042;42.626;23.382;2023-07-31T09:48:22;1.90;;;1.80;;
10005;SDS011;5042;42.626;23.382;2023-07-31T09:50:52;1.70;;;1.60;;
10005;SDS011;5042;42.626;23.382;2023-07-31T09:53:20;2.63;;;2.40;;
10005;SDS011;5042;42.626;23.382;2023-07-31T09:55:55;1.80;;;1.70;;
10005;SDS011;5042;42.626;23.382;2023-07-31T09:58:26;1.70;;;1.58;;
10005;SDS011;5042;42.626;23.382;2023-07-31T10:00:55;2.78;;;1.90;;
10005;SDS011;5042;42.626;23.382;2023-07-31T10:03:24;2.40;;;2.20;;
10005;SDS011;5042;42.626;23.382;2023-07-31T10:05:52;2.05;;;1.95;;
10005;SDS011;5042;42.626;23.382;2023-07-31T10:08:21;2.00;;;1.90;;
10005;SDS011;5042;42.626;23.382;2023-07-31T10:10:54;1.90;;;1.75;;
10005;SDS011;5042;42.626;23.382;2023-07-31T10:13:25;3.85;;;2.33;;
10005;SDS011;5042;42.626;23.382;2023-07-31T10:15:54;1.77;;;1.67;;
10005;SDS011;5042;42.626;23.382;2023-07-31T10:18:25;2.40;;;2.20;;
10005;SDS011;5042;42.626;23.382;2023-07-31T10:20:53;1.80;;;1.70;;
10005;SDS011;5042;42.626;23.382;2023-07-31T10:23:21;3.20;;;2.92;;
10005;SDS011;5042;42.626;23.382;2023-07-31T10:25:49;2.10;;;1.90;;
10005;SDS011;5042;42.626;23.382;2023-07-31T10:28:19;1.77;;;1.67;;
10005;SDS011;5042;42.626;23.382;2023-07-31T10:30:48;1.77;;;1.67;;
10005;SDS011;5042;42.626;23.382;2023-07-31T10:33:16;1.90;;;1.80;;
10005;SDS011;5042;42.626;23.382;2023-07-31T10:35:44;1.67;;;1.58;;
10005;SDS011;5042;42.626;23.382;2023-07-31T10:38:13;2.72;;;1.70;;
10005;SDS011;5042;42.626;23.382;2023-07-31T10:40:40;1.33;;;1.33;;
10005;SDS011;5042;42.626;23.382;2023-07-31T10:43:07;2.20;;;2.00;;
10005;SDS011;5042;42.626;23.382;2023-07-31T10:45:36;2.33;;;2.13;;
10005;SDS011;5042;42.626;23.382;2023-07-31T10:48:06;1.85;;;1.75;;
10005;SDS011;5042;42.626;23.382;2023-07-31T10:50:36;1.83;;;1.70;;
10005;SDS011;5042;42.626;23.382;2023-07-31T10:53:04;1.70;;;1.60;;
10005;SDS011;5042;42.626;23.382;2023-07-31T10:55:32;1.60;;;1.50;;
10005;SDS011;5042;42.626;23.382;2023-07-31T10:58:05;1.67;;;1.58;;
10005;SDS011;5042;42.626;23.382;2023-07-31T11:00:33;1.33;;;1.33;;
10005;SDS011;5042;42.626;23.382;2023-07-31T11:03:01;1.60;;;1.50;;
10005;SDS011;5042;42.626;23.382;2023-07-31T11:08:14;3.10;;;1.45;;
10005;SDS011;5042;42.626;23.382;2023-07-31T11:10:42;1.70;;;1.55;;
10005;SDS011;5042;42.626;23.382;2023-07-31T11:13:09;1.15;;;1.15;;
10005;SDS011;5042;42.626;23.382;2023-07-31T11:15:36;2.05;;;1.48;;
10005;SDS011;5042;42.626;23.382;2023-07-31T11:18:03;2.13;;;1.30;;
10005;SDS011;5042;42.626;23.382;2023-07-31T11:20:31;2.40;;;1.40;;
10005;SDS011;5042;42.626;23.382;2023-07-31T11:23:00;1.80;;;1.70;;
10005;SDS011;5042;42.626;23.382;2023-07-31T11:25:28;1.67;;;1.42;;
10005;SDS011;5042;42.626;23.382;2023-07-31T11:27:56;1.40;;;1.30;;
10005;SDS011;5042;42.626;23.382;2023-07-31T11:30:23;1.25;;;1.25;;
10005;SDS011;5042;42.626;23.382;2023-07-31T11:32:50;1.92;;;1.45;;
10005;SDS011;5042;42.626;23.382;2023-07-31T11:35:17;1.48;;;1.38;;
10005;SDS011;5042;42.626;23.382;2023-07-31T11:37:44;1.17;;;1.17;;
10005;SDS011;5042;42.626;23.382;2023-07-31T11:40:12;1.50;;;1.40;;
10005;SDS011;5042;42.626;23.382;2023-07-31T11:42:39;1.60;;;1.50;;
10005;SDS011;5042;42.626;23.382;2023-07-31T11:45:07;1.55;;;1.50;;
10005;SDS011;5042;42.626;23.382;2023-07-31T11:47:35;1.52;;;1.42;;
10005;SDS011;5042;42.626;23.382;2023-07-31T11:50:04;1.52;;;1.42;;
10005;SDS011;5042;42.626;23.382;2023-07-31T11:52:36;2.30;;;1.42;;
10005;SDS011;5042;42.626;23.382;2023-07-31T11:55:07;2.60;;;1.50;;
10005;SDS011;5042;42.626;23.382;2023-07-31T11:57:37;1.52;;;1.42;;
10005;SDS011;5042;42.626;23.382;2023-07-31T12:00:06;1.45;;;1.40;;
10005;SDS011;5042;42.626;23.382;2023-07-31T12:02:36;1.70;;;1.60;;
10005;SDS011;5042;42.626;23.382;2023-07-31T12:05:04;4.25;;;3.85;;
10005;SDS011;5042;42.626;23.382;2023-07-31T12:07:42;2.10;;;2.00;;
10005;SDS011;5042;42.626;23.382;2023-07-31T12:10:10;3.60;;;1.70;;
10005;SDS011;5042;42.626;23.382;2023-07-31T12:12:38;2.13;;;1.92;;
10005;SDS011;5042;42.626;23.382;2023-07-31T12:15:13;1.95;;;1.80;;
10005;SDS011;5042;42.626;23.382;2023-07-31T12:17:41;1.67;;;1.58;;
10005;SDS011;5042;42.626;23.382;2023-07-31T12:20:08;1.67;;;1.58;;
10005;SDS011;5042;42.626;23.382;2023-07-31T12:22:36;1.83;;;1.67;;
10005;SDS011;5042;42.626;23.382;2023-07-31T12:25:02;1.88;;;1.77;;
10005;SDS011;5042;42.626;23.382;2023-07-31T12:27:32;1.73;;;1.63;;
10005;SDS011;5042;42.626;23.382;2023-07-31T12:30:01;2.47;;;2.28;;
10005;SDS011;5042;42.626;23.382;2023-07-31T12:32:29;1.77;;;1.67;;
10005;SDS011;5042;42.626;23.382;2023-07-31T12:34:59;2.17;;;2.00;;
10005;SDS011;5042;42.626;23.382;2023-07-31T12:37:26;2.67;;;2.47;;
10005;SDS011;5042;42.626;23.382;2023-07-31T12:39:53;2.90;;;2.60;;
10005;SDS011;5042;42.626;23.382;2023-07-31T12:42:20;3.15;;;2.85;;
10005;SDS011;5042;42.626;23.382;2023-07-31T12:44:46;3.50;;;3.20;;
10005;SDS011;5042;42.626;23.382;2023-07-31T12:47:14;3.50;;;3.20;;
10005;SDS011;5042;42.626;23.382;2023-07-31T12:49:41;3.03;;;2.70;;
10005;SDS011;5042;42.626;23.382;2023-07-31T12:52:08;3.28;;;3.00;;
10005;SDS011;5042;42.626;23.382;2023-07-31T12:54:34;3.67;;;3.10;;
10005;SDS011;5042;42.626;23.382;2023-07-31T12:57:01;3.08;;;2.78;;
10005;SDS011;5042;42.626;23.382;2023-07-31T12:59:28;3.30;;;3.00;;
10005;SDS011;5042;42.626;23.382;2023-07-31T13:01:54;3.13;;;2.83;;
10005;SDS011;5042;42.626;23.382;2023-07-31T13:04:22;3.70;;;2.80;;
10005;SDS011;5042;42.626;23.382;2023-07-31T13:06:49;3.20;;;2.65;;
10005;SDS011;5042;42.626;23.382;2023-07-31T13:09:16;3.33;;;3.03;;
10005;SDS011;5042;42.626;23.382;2023-07-31T13:11:42;3.03;;;2.83;;
10005;SDS011;5042;42.626;23.382;2023-07-31T13:14:09;3.50;;;3.20;;
10005;SDS011;5042;42.626;23.382;2023-07-31T13:16:36;3.50;;;3.20;;
10005;SDS011;5042;42.626;23.382;2023-07-31T13:19:02;3.78;;;3.47;;
10005;SDS011;5042;42.626;23.382;2023-07-31T13:21:31;3.53;;;3.22;;
10005;SDS011;5042;42.626;23.382;2023-07-31T13:24:00;3.03;;;2.80;;
10005;SDS011;5042;42.626;23.382;2023-07-31T13:26:27;3.25;;;3.05;;
10005;SDS011;5042;42.626;23.382;2023-07-31T13:28:54;4.72;;;3.35;;
10005;SDS011;5042;42.626;23.382;2023-07-31T13:31:21;3.60;;;3.30;;
10005;SDS011;5042;42.626;23.382;2023-07-31T13:33:48;3.05;;;2.85;;
10005;SDS011;5042;42.626;23.382;2023-07-31T13:36:15;5.70;;;3.47;;
10005;SDS011;5042;42.626;23.382;2023-07-31T13:38:43;6.07;;;3.30;;
10005;SDS011;5042;42.626;23.382;2023-07-31T13:41:09;3.40;;;3.10;;
10005;SDS011;5042;42.626;23.382;2023-07-31T13:43:36;3.20;;;2.75;;
10005;SDS011;5042;42.626;23.382;2023-07-31T13:46:03;3.55;;;2.97;;
10005;SDS011;5042;42.626;23.382;2023-07-31T13:48:31;3.65;;;2.83;;
10005;SDS011;5042;42.626;23.382;2023-07-31T13:50:59;3.10;;;2.80;;
10005;SDS011;5042;42.626;23.382;2023-07-31T13:53:26;2.80;;;2.60;;
10005;SDS011;5042;42.626;23.382;2023-07-31T13:55:54;3.05;;;2.50;;
10005;SDS011;5042;42.626;23.382;2023-07-31T13:58:20;3.10;;;2.80;;
10005;SDS011;5042;42.626;23.382;2023-07-31T14:00:47;2.95;;;2.70;;
10005;SDS011;5042;42.626;23.382;2023-07-31T14:03:14;2.88;;;2.67;;
10005;SDS011;5042;42.626;23.382;2023-07-31T14:05:40;4.65;;;2.75;;
10005;SDS011;5042;42.626;23.382;2023-07-31T14:08:07;2.97;;;2.78;;
10005;SDS011;5042;42.626;23.382;2023-07-31T14:10:34;2.75;;;2.55;;
10005;SDS011;5042;42.626;23.382;2023-07-31T14:13:02;3.25;;;2.78;;
10005;SDS011;5042;42.626;23.382;2023-07-31T14:15:29;3.13;;;2.38;;
10005;SDS011;5042;42.626;23.382;2023-07-31T14:17:57;2.78;;;2.58;;
10005;SDS011;5042;42.626;23.382;2023-07-31T14:20:23;5.40;;;2.95;;
10005;SDS011;5042;42.626;23.382;2023-07-31T14:22:50;8.75;;;2.60;;
10005;SDS011;5042;42.626;23.382;2023-07-31T14:25:17;2.90;;;2.70;;
10005;SDS011;5042;42.626;23.382;2023-07-31T14:27:43;2.90;;;2.60;;
10005;SDS011;5042;42.626;23.382;2023-07-31T14:30:11;3.03;;;2.70;;
10005;SDS011;5042;42.626;23.382;2023-07-31T14:32:38;3.45;;;2.83;;
10005;SDS011;5042;42.626;23.382;2023-07-31T14:35:05;2.70;;;2.50;;
10005;SDS011;5042;42.626;23.382;2023-07-31T14:37:36;2.60;;;2.40;;
10005;SDS011;5042;42.626;23.382;2023-07-31T14:40:03;2.97;;;2.67;;
10005;SDS011;5042;42.626;23.382;2023-07-31T14:42:30;3.15;;;2.83;;
10005;SDS011;5042;42.626;23.382;2023-07-31T14:44:57;9.73;;;2.90;;
10005;SDS011;5042;42.626;23.382;2023-07-31T14:47:25;2.53;;;2.33;;
10005;SDS011;5042;42.626;23.382;2023-07-31T14:49:52;2.90;;;2.60;;